الصفحة الرئيسية
METAR-TAF:

METAR-TAF

مطار :

ماليه, جزر المالديف

دائرة عرض: 04-12N, خط طول: 073-32E, ارتفاع: 2 متر

مراقبة الطقس الحالي

تاريخ ووقت الإصدار 1ساعة و 4 دقيقة قبل الساعة 06:00UTC
ريح 12 عقدة من الشرق/الشمال الشرقي
درجة الحرارة 29°درجة مئوية
الرطوبة 70%
ضغط 1011 hPa
الرؤية: 7000 متر
غيوم قليلة على ارتفاع 1800 قدم
غيوم مفككة على ارتفاع 27000 قدم

METAR: VRMM 190600Z 07012KT 7000 FEW018 BKN270 29/23 Q1011 NOSIG

زمن: 12:04 (07:04 UTC)

توقعات

تاريخ ووقت الإصدار 2ساعات و 4 دقيقة قبل الساعة 05:00UTC
التوقعات صالحة من19 الساعة 06 UTC إلى 20 الساعة 12 UTC
ريح 12 عقدة من الشرق
الرؤية: 7000 متر
غيوم قليلة على ارتفاع 1800 قدم
مؤقت
من 19 الساعة 06 UTC إلى 19 الساعة 12 UTC
الرؤية: 5000 متر
غيوم قليلة على ارتفاع 1800 قدم, مزنة ركامية.
العجاج

TAF: VRMM 190500Z 1906/2012 08012KT 7000 FEW018 TEMPO 1906/1912 5000 HZ FEW018CB

أرصاد الطقس والتوقعات من أكثر من 4000 مطار (تقارير الطقس للمطار METAR والتنبؤ بالطقس بالمطارTAF).

المحطات المتاحة هي النقط الصفراء والحمراء على الخريطة.

حرك المؤشر فوق النقطة لمعرفة اسم المحطة.

ثم انقر لمعرفة أرصاد وتوقعات الطقس.

لتغيير الخارطة: اضغط على الأزرار الخضراء مع رمز الصليب الأسود للتكبير. على الزر الأخضر مع شرطة للتصغير، أو على الأسهم الخضراء للخرائط المجاورة.


METAR-TAF: